sensor_id;sensor_type;location;lat;lon;timestamp;P1;durP1;ratioP1;P2;durP2;ratioP2
58242;SDS011;50118;53.232;8.252;2024-03-23T00:53:01;27.48;;;5.30;;
58242;SDS011;50118;53.232;8.252;2024-03-23T00:55:27;23.30;;;4.88;;
58242;SDS011;50118;53.232;8.252;2024-03-23T00:57:52;26.13;;;5.03;;
58242;SDS011;50118;53.232;8.252;2024-03-23T01:00:18;18.90;;;4.63;;
58242;SDS011;50118;53.232;8.252;2024-03-23T01:02:43;21.17;;;4.95;;
58242;SDS011;50118;53.232;8.252;2024-03-23T01:05:09;17.90;;;5.22;;
58242;SDS011;50118;53.232;8.252;2024-03-23T01:07:34;19.27;;;4.40;;
58242;SDS011;50118;53.232;8.252;2024-03-23T01:10:00;19.85;;;5.57;;
58242;SDS011;50118;53.232;8.252;2024-03-23T01:12:25;23.52;;;5.22;;
58242;SDS011;50118;53.232;8.252;2024-03-23T01:14:51;25.40;;;5.22;;
58242;SDS011;50118;53.232;8.252;2024-03-23T01:17:16;20.27;;;4.70;;
58242;SDS011;50118;53.232;8.252;2024-03-23T01:19:42;22.45;;;4.93;;
58242;SDS011;50118;53.232;8.252;2024-03-23T01:22:07;24.50;;;5.38;;
58242;SDS011;50118;53.232;8.252;2024-03-23T01:24:35;21.35;;;4.78;;
58242;SDS011;50118;53.232;8.252;2024-03-23T01:27:00;19.00;;;4.93;;
58242;SDS011;50118;53.232;8.252;2024-03-23T01:29:26;21.35;;;5.38;;
58242;SDS011;50118;53.232;8.252;2024-03-23T01:31:51;23.40;;;5.15;;
58242;SDS011;50118;53.232;8.252;2024-03-23T01:34:17;25.85;;;5.22;;
58242;SDS011;50118;53.232;8.252;2024-03-23T01:36:43;24.52;;;5.00;;
58242;SDS011;50118;53.232;8.252;2024-03-23T01:39:08;29.98;;;5.22;;
58242;SDS011;50118;53.232;8.252;2024-03-23T01:41:36;23.75;;;5.05;;
58242;SDS011;50118;53.232;8.252;2024-03-23T01:44:05;27.05;;;5.57;;
58242;SDS011;50118;53.232;8.252;2024-03-23T01:46:32;23.00;;;5.50;;
58242;SDS011;50118;53.232;8.252;2024-03-23T01:48:58;22.33;;;5.03;;
58242;SDS011;50118;53.232;8.252;2024-03-23T01:51:23;18.67;;;4.75;;
58242;SDS011;50118;53.232;8.252;2024-03-23T01:53:49;20.73;;;4.63;;
58242;SDS011;50118;53.232;8.252;2024-03-23T01:56:16;18.77;;;4.40;;
58242;SDS011;50118;53.232;8.252;2024-03-23T01:58:41;28.08;;;5.57;;
58242;SDS011;50118;53.232;8.252;2024-03-23T02:01:06;19.88;;;4.60;;
58242;SDS011;50118;53.232;8.252;2024-03-23T02:03:32;24.02;;;5.00;;
58242;SDS011;50118;53.232;8.252;2024-03-23T02:05:58;26.80;;;5.10;;
58242;SDS011;50118;53.232;8.252;2024-03-23T02:08:24;21.88;;;5.05;;
58242;SDS011;50118;53.232;8.252;2024-03-23T02:10:50;21.33;;;5.00;;
58242;SDS011;50118;53.232;8.252;2024-03-23T02:13:16;23.73;;;5.07;;
58242;SDS011;50118;53.232;8.252;2024-03-23T02:15:42;18.35;;;4.68;;
58242;SDS011;50118;53.232;8.252;2024-03-23T02:18:09;29.88;;;5.70;;
58242;SDS011;50118;53.232;8.252;2024-03-23T02:20:36;25.02;;;5.32;;
58242;SDS011;50118;53.232;8.252;2024-03-23T02:23:02;26.08;;;4.88;;
58242;SDS011;50118;53.232;8.252;2024-03-23T02:25:30;22.30;;;5.28;;
58242;SDS011;50118;53.232;8.252;2024-03-23T02:27:56;17.75;;;4.88;;
58242;SDS011;50118;53.232;8.252;2024-03-23T02:30:23;21.90;;;5.55;;
58242;SDS011;50118;53.232;8.252;2024-03-23T02:32:49;26.60;;;5.95;;
58242;SDS011;50118;53.232;8.252;2024-03-23T02:35:14;23.08;;;5.35;;
58242;SDS011;50118;53.232;8.252;2024-03-23T02:37:40;24.88;;;5.85;;
58242;SDS011;50118;53.232;8.252;2024-03-23T02:40:06;26.90;;;6.15;;
58242;SDS011;50118;53.232;8.252;2024-03-23T02:42:31;27.17;;;5.65;;
58242;SDS011;50118;53.232;8.252;2024-03-23T02:44:58;21.17;;;5.25;;
58242;SDS011;50118;53.232;8.252;2024-03-23T02:47:24;27.85;;;6.35;;
58242;SDS011;50118;53.232;8.252;2024-03-23T02:49:49;30.05;;;6.28;;
58242;SDS011;50118;53.232;8.252;2024-03-23T02:52:15;22.85;;;5.82;;
58242;SDS011;50118;53.232;8.252;2024-03-23T02:54:40;27.65;;;5.55;;
58242;SDS011;50118;53.232;8.252;2024-03-23T02:57:09;25.50;;;5.25;;
58242;SDS011;50118;53.232;8.252;2024-03-23T02:59:35;21.73;;;5.20;;
58242;SDS011;50118;53.232;8.252;2024-03-23T03:02:01;23.15;;;5.20;;
58242;SDS011;50118;53.232;8.252;2024-03-23T03:04:26;22.30;;;5.68;;
58242;SDS011;50118;53.232;8.252;2024-03-23T03:06:52;23.65;;;5.82;;
58242;SDS011;50118;53.232;8.252;2024-03-23T03:09:17;23.92;;;5.32;;
58242;SDS011;50118;53.232;8.252;2024-03-23T03:11:43;28.10;;;6.45;;
58242;SDS011;50118;53.232;8.252;2024-03-23T03:14:08;25.25;;;5.55;;
58242;SDS011;50118;53.232;8.252;2024-03-23T03:16:34;20.65;;;5.03;;
58242;SDS011;50118;53.232;8.252;2024-03-23T03:18:59;23.33;;;5.38;;
58242;SDS011;50118;53.232;8.252;2024-03-23T03:21:26;29.48;;;5.93;;
58242;SDS011;50118;53.232;8.252;2024-03-23T03:23:52;29.67;;;6.20;;
58242;SDS011;50118;53.232;8.252;2024-03-23T03:26:17;25.77;;;5.90;;
58242;SDS011;50118;53.232;8.252;2024-03-23T03:28:43;19.70;;;5.97;;
58242;SDS011;50118;53.232;8.252;2024-03-23T03:31:13;29.13;;;6.88;;
58242;SDS011;50118;53.232;8.252;2024-03-23T03:33:40;32.05;;;7.60;;
58242;SDS011;50118;53.232;8.252;2024-03-23T03:36:05;27.90;;;6.15;;
58242;SDS011;50118;53.232;8.252;2024-03-23T03:38:31;27.77;;;6.10;;
58242;SDS011;50118;53.232;8.252;2024-03-23T03:40:56;28.58;;;6.43;;
58242;SDS011;50118;53.232;8.252;2024-03-23T03:43:24;19.45;;;5.75;;
58242;SDS011;50118;53.232;8.252;2024-03-23T03:45:52;22.00;;;5.20;;
58242;SDS011;50118;53.232;8.252;2024-03-23T03:48:19;25.75;;;5.95;;
58242;SDS011;50118;53.232;8.252;2024-03-23T03:50:44;23.90;;;6.00;;
58242;SDS011;50118;53.232;8.252;2024-03-23T03:53:10;19.65;;;5.43;;
58242;SDS011;50118;53.232;8.252;2024-03-23T03:55:36;28.90;;;5.97;;
58242;SDS011;50118;53.232;8.252;2024-03-23T03:58:02;21.45;;;5.18;;
58242;SDS011;50118;53.232;8.252;2024-03-23T04:00:27;26.48;;;5.95;;
58242;SDS011;50118;53.232;8.252;2024-03-23T04:02:53;25.13;;;4.90;;
58242;SDS011;50118;53.232;8.252;2024-03-23T04:05:18;20.83;;;5.30;;
58242;SDS011;50118;53.232;8.252;2024-03-23T04:07:45;28.60;;;5.88;;
58242;SDS011;50118;53.232;8.252;2024-03-23T04:10:10;23.38;;;5.60;;
58242;SDS011;50118;53.232;8.252;2024-03-23T04:12:36;22.67;;;5.05;;
58242;SDS011;50118;53.232;8.252;2024-03-23T04:15:02;22.88;;;5.78;;
58242;SDS011;50118;53.232;8.252;2024-03-23T04:17:30;24.80;;;5.30;;
58242;SDS011;50118;53.232;8.252;2024-03-23T04:19:58;32.85;;;6.85;;
58242;SDS011;50118;53.232;8.252;2024-03-23T04:22:24;19.55;;;5.60;;
58242;SDS011;50118;53.232;8.252;2024-03-23T04:24:52;25.83;;;6.13;;
58242;SDS011;50118;53.232;8.252;2024-03-23T04:27:21;29.67;;;5.88;;
58242;SDS011;50118;53.232;8.252;2024-03-23T04:29:47;23.98;;;5.28;;
58242;SDS011;50118;53.232;8.252;2024-03-23T04:32:14;23.73;;;5.40;;
58242;SDS011;50118;53.232;8.252;2024-03-23T04:34:40;22.52;;;5.88;;
58242;SDS011;50118;53.232;8.252;2024-03-23T04:37:06;26.98;;;5.75;;
58242;SDS011;50118;53.232;8.252;2024-03-23T04:39:32;31.98;;;6.63;;
58242;SDS011;50118;53.232;8.252;2024-03-23T04:41:58;30.42;;;5.88;;
58242;SDS011;50118;53.232;8.252;2024-03-23T04:44:24;22.17;;;5.72;;
58242;SDS011;50118;53.232;8.252;2024-03-23T04:46:49;19.40;;;5.03;;
58242;SDS011;50118;53.232;8.252;2024-03-23T04:49:14;27.05;;;5.75;;
58242;SDS011;50118;53.232;8.252;2024-03-23T04:51:40;20.75;;;5.97;;
58242;SDS011;50118;53.232;8.252;2024-03-23T04:54:10;23.60;;;6.00;;
58242;SDS011;50118;53.232;8.252;2024-03-23T04:56:36;22.48;;;5.82;;
58242;SDS011;50118;53.232;8.252;2024-03-23T04:59:02;33.28;;;6.30;;
58242;SDS011;50118;53.232;8.252;2024-03-23T05:01:30;24.60;;;6.35;;
58242;SDS011;50118;53.232;8.252;2024-03-23T05:03:58;23.63;;;5.70;;
58242;SDS011;50118;53.232;8.252;2024-03-23T05:06:24;28.92;;;5.75;;
58242;SDS011;50118;53.232;8.252;2024-03-23T05:08:50;25.77;;;5.93;;
58242;SDS011;50118;53.232;8.252;2024-03-23T05:11:16;24.08;;;5.43;;
58242;SDS011;50118;53.232;8.252;2024-03-23T05:13:42;31.17;;;6.25;;
58242;SDS011;50118;53.232;8.252;2024-03-23T05:16:07;25.80;;;5.95;;
58242;SDS011;50118;53.232;8.252;2024-03-23T05:18:33;25.58;;;5.75;;
58242;SDS011;50118;53.232;8.252;2024-03-23T05:20:59;26.77;;;6.05;;
58242;SDS011;50118;53.232;8.252;2024-03-23T05:23:25;26.90;;;6.13;;
58242;SDS011;50118;53.232;8.252;2024-03-23T05:25:51;25.42;;;5.72;;
58242;SDS011;50118;53.232;8.252;2024-03-23T05:28:17;34.75;;;6.43;;
58242;SDS011;50118;53.232;8.252;2024-03-23T05:30:43;34.92;;;6.25;;
58242;SDS011;50118;53.232;8.252;2024-03-23T05:33:09;29.40;;;5.97;;
58242;SDS011;50118;53.232;8.252;2024-03-23T05:35:34;22.90;;;5.43;;
58242;SDS011;50118;53.232;8.252;2024-03-23T05:38:00;28.33;;;6.13;;
58242;SDS011;50118;53.232;8.252;2024-03-23T05:40:26;23.13;;;5.78;;
58242;SDS011;50118;53.232;8.252;2024-03-23T05:42:52;20.30;;;5.55;;
58242;SDS011;50118;53.232;8.252;2024-03-23T05:45:21;23.45;;;5.70;;
58242;SDS011;50118;53.232;8.252;2024-03-23T05:47:47;29.90;;;6.72;;
58242;SDS011;50118;53.232;8.252;2024-03-23T05:50:14;25.20;;;6.13;;
58242;SDS011;50118;53.232;8.252;2024-03-23T05:52:39;28.80;;;6.55;;
58242;SDS011;50118;53.232;8.252;2024-03-23T05:55:05;31.35;;;6.47;;
58242;SDS011;50118;53.232;8.252;2024-03-23T05:57:31;27.10;;;6.10;;
58242;SDS011;50118;53.232;8.252;2024-03-23T05:59:57;27.98;;;5.78;;
58242;SDS011;50118;53.232;8.252;2024-03-23T06:02:23;29.95;;;6.90;;
58242;SDS011;50118;53.232;8.252;2024-03-23T06:04:49;27.02;;;6.90;;
58242;SDS011;50118;53.232;8.252;2024-03-23T06:07:14;32.38;;;6.93;;
58242;SDS011;50118;53.232;8.252;2024-03-23T06:09:41;28.38;;;6.82;;
58242;SDS011;50118;53.232;8.252;2024-03-23T06:12:07;21.70;;;6.50;;
58242;SDS011;50118;53.232;8.252;2024-03-23T06:14:33;27.15;;;6.93;;
58242;SDS011;50118;53.232;8.252;2024-03-23T06:17:00;30.88;;;7.15;;
58242;SDS011;50118;53.232;8.252;2024-03-23T06:19:26;34.22;;;8.43;;
58242;SDS011;50118;53.232;8.252;2024-03-23T06:21:53;28.52;;;7.25;;
58242;SDS011;50118;53.232;8.252;2024-03-23T06:24:21;35.28;;;7.30;;
58242;SDS011;50118;53.232;8.252;2024-03-23T06:26:49;27.02;;;7.40;;
58242;SDS011;50118;53.232;8.252;2024-03-23T06:29:15;35.65;;;6.88;;
58242;SDS011;50118;53.232;8.252;2024-03-23T06:31:40;27.45;;;7.05;;
58242;SDS011;50118;53.232;8.252;2024-03-23T06:34:06;25.40;;;6.47;;
58242;SDS011;50118;53.232;8.252;2024-03-23T06:36:31;24.63;;;6.65;;
58242;SDS011;50118;53.232;8.252;2024-03-23T06:38:57;33.95;;;7.07;;
58242;SDS011;50118;53.232;8.252;2024-03-23T06:41:23;25.77;;;6.55;;
58242;SDS011;50118;53.232;8.252;2024-03-23T06:43:49;27.50;;;6.35;;
58242;SDS011;50118;53.232;8.252;2024-03-23T06:46:15;17.17;;;5.15;;
58242;SDS011;50118;53.232;8.252;2024-03-23T06:48:40;19.98;;;5.45;;
58242;SDS011;50118;53.232;8.252;2024-03-23T06:51:06;25.75;;;5.18;;
58242;SDS011;50118;53.232;8.252;2024-03-23T06:53:31;18.33;;;4.88;;
58242;SDS011;50118;53.232;8.252;2024-03-23T06:55:57;18.48;;;5.07;;
58242;SDS011;50118;53.232;8.252;2024-03-23T06:58:23;15.23;;;4.43;;
58242;SDS011;50118;53.232;8.252;2024-03-23T07:00:50;14.45;;;4.20;;
58242;SDS011;50118;53.232;8.252;2024-03-23T07:03:19;22.40;;;4.78;;
58242;SDS011;50118;53.232;8.252;2024-03-23T07:05:46;18.52;;;4.78;;
58242;SDS011;50118;53.232;8.252;2024-03-23T07:08:12;17.90;;;4.20;;
58242;SDS011;50118;53.232;8.252;2024-03-23T07:10:40;15.55;;;4.20;;
58242;SDS011;50118;53.232;8.252;2024-03-23T07:13:06;19.02;;;4.28;;
58242;SDS011;50118;53.232;8.252;2024-03-23T07:15:32;17.38;;;4.10;;
58242;SDS011;50118;53.232;8.252;2024-03-23T07:17:57;18.83;;;4.43;;
58242;SDS011;50118;53.232;8.252;2024-03-23T07:20:23;15.15;;;3.85;;
58242;SDS011;50118;53.232;8.252;2024-03-23T07:22:48;14.68;;;3.90;;
58242;SDS011;50118;53.232;8.252;2024-03-23T07:25:14;14.32;;;3.95;;
58242;SDS011;50118;53.232;8.252;2024-03-23T07:27:40;13.88;;;3.63;;
58242;SDS011;50118;53.232;8.252;2024-03-23T07:30:05;12.82;;;3.70;;
58242;SDS011;50118;53.232;8.252;2024-03-23T07:32:31;15.75;;;3.65;;
58242;SDS011;50118;53.232;8.252;2024-03-23T07:34:57;13.48;;;3.63;;
58242;SDS011;50118;53.232;8.252;2024-03-23T07:37:22;14.80;;;3.80;;
58242;SDS011;50118;53.232;8.252;2024-03-23T07:39:48;13.63;;;3.72;;
58242;SDS011;50118;53.232;8.252;2024-03-23T07:42:13;20.85;;;4.10;;
58242;SDS011;50118;53.232;8.252;2024-03-23T07:44:39;13.80;;;3.47;;
58242;SDS011;50118;53.232;8.252;2024-03-23T07:47:06;13.65;;;3.58;;
58242;SDS011;50118;53.232;8.252;2024-03-23T07:49:32;13.18;;;3.05;;
58242;SDS011;50118;53.232;8.252;2024-03-23T07:51:57;13.35;;;2.72;;
58242;SDS011;50118;53.232;8.252;2024-03-23T07:54:23;14.77;;;3.33;;
58242;SDS011;50118;53.232;8.252;2024-03-23T07:56:48;16.52;;;3.30;;
58242;SDS011;50118;53.232;8.252;2024-03-23T07:59:14;11.13;;;2.97;;
58242;SDS011;50118;53.232;8.252;2024-03-23T08:01:39;11.20;;;3.22;;
58242;SDS011;50118;53.232;8.252;2024-03-23T08:04:05;10.68;;;2.83;;
58242;SDS011;50118;53.232;8.252;2024-03-23T08:06:31;12.10;;;3.10;;
58242;SDS011;50118;53.232;8.252;2024-03-23T08:08:57;11.90;;;3.33;;
58242;SDS011;50118;53.232;8.252;2024-03-23T08:11:26;11.18;;;2.80;;
58242;SDS011;50118;53.232;8.252;2024-03-23T08:13:52;12.60;;;3.47;;
58242;SDS011;50118;53.232;8.252;2024-03-23T08:16:17;12.95;;;3.30;;
58242;SDS011;50118;53.232;8.252;2024-03-23T08:18:43;12.82;;;3.35;;
58242;SDS011;50118;53.232;8.252;2024-03-23T08:21:09;13.80;;;3.03;;
58242;SDS011;50118;53.232;8.252;2024-03-23T08:23:35;12.70;;;3.42;;
58242;SDS011;50118;53.232;8.252;2024-03-23T08:26:07;10.55;;;3.28;;
58242;SDS011;50118;53.232;8.252;2024-03-23T08:28:34;12.55;;;3.15;;
58242;SDS011;50118;53.232;8.252;2024-03-23T08:31:01;13.65;;;3.42;;
58242;SDS011;50118;53.232;8.252;2024-03-23T08:33:30;11.13;;;3.03;;
58242;SDS011;50118;53.232;8.252;2024-03-23T08:35:56;8.60;;;2.80;;
58242;SDS011;50118;53.232;8.252;2024-03-23T08:38:23;12.20;;;3.50;;
58242;SDS011;50118;53.232;8.252;2024-03-23T08:43:28;13.13;;;2.78;;
58242;SDS011;50118;53.232;8.252;2024-03-23T08:46:05;15.98;;;3.28;;
58242;SDS011;50118;53.232;8.252;2024-03-23T08:48:32;14.77;;;2.90;;
58242;SDS011;50118;53.232;8.252;2024-03-23T08:53:27;9.10;;;2.38;;
58242;SDS011;50118;53.232;8.252;2024-03-23T08:55:54;11.63;;;2.97;;
58242;SDS011;50118;53.232;8.252;2024-03-23T08:58:21;9.25;;;2.22;;
58242;SDS011;50118;53.232;8.252;2024-03-23T09:00:49;10.35;;;2.58;;
58242;SDS011;50118;53.232;8.252;2024-03-23T09:03:14;9.45;;;2.58;;
58242;SDS011;50118;53.232;8.252;2024-03-23T09:05:40;7.05;;;2.10;;
58242;SDS011;50118;53.232;8.252;2024-03-23T09:08:06;9.60;;;2.17;;
58242;SDS011;50118;53.232;8.252;2024-03-23T09:10:34;9.77;;;2.80;;
58242;SDS011;50118;53.232;8.252;2024-03-23T09:13:03;10.02;;;2.55;;
58242;SDS011;50118;53.232;8.252;2024-03-23T09:15:28;11.32;;;2.80;;
58242;SDS011;50118;53.232;8.252;2024-03-23T09:17:54;11.32;;;2.70;;
58242;SDS011;50118;53.232;8.252;2024-03-23T09:20:19;13.20;;;2.92;;
58242;SDS011;50118;53.232;8.252;2024-03-23T09:22:45;14.68;;;2.80;;
58242;SDS011;50118;53.232;8.252;2024-03-23T09:25:10;12.73;;;2.88;;
58242;SDS011;50118;53.232;8.252;2024-03-23T09:27:36;9.85;;;2.33;;
58242;SDS011;50118;53.232;8.252;2024-03-23T09:30:01;11.45;;;2.75;;
58242;SDS011;50118;53.232;8.252;2024-03-23T09:32:27;10.27;;;2.50;;
58242;SDS011;50118;53.232;8.252;2024-03-23T09:34:52;10.05;;;2.58;;
58242;SDS011;50118;53.232;8.252;2024-03-23T09:37:17;10.10;;;2.60;;
58242;SDS011;50118;53.232;8.252;2024-03-23T09:39:43;9.57;;;2.53;;
58242;SDS011;50118;53.232;8.252;2024-03-23T09:42:09;11.55;;;2.72;;
58242;SDS011;50118;53.232;8.252;2024-03-23T09:44:35;9.93;;;2.65;;
58242;SDS011;50118;53.232;8.252;2024-03-23T09:47:01;10.35;;;2.20;;
58242;SDS011;50118;53.232;8.252;2024-03-23T09:49:26;5.90;;;1.90;;
58242;SDS011;50118;53.232;8.252;2024-03-23T09:51:52;8.38;;;2.00;;
58242;SDS011;50118;53.232;8.252;2024-03-23T09:54:20;5.53;;;1.90;;
58242;SDS011;50118;53.232;8.252;2024-03-23T09:56:46;9.48;;;2.30;;
58242;SDS011;50118;53.232;8.252;2024-03-23T09:59:12;8.05;;;2.28;;
58242;SDS011;50118;53.232;8.252;2024-03-23T10:01:37;9.73;;;2.38;;
58242;SDS011;50118;53.232;8.252;2024-03-23T10:04:03;7.15;;;2.45;;
58242;SDS011;50118;53.232;8.252;2024-03-23T10:06:29;9.60;;;2.63;;
58242;SDS011;50118;53.232;8.252;2024-03-23T10:08:54;8.68;;;2.42;;
58242;SDS011;50118;53.232;8.252;2024-03-23T10:11:20;6.38;;;2.20;;
58242;SDS011;50118;53.232;8.252;2024-03-23T10:13:46;7.28;;;2.45;;
58242;SDS011;50118;53.232;8.252;2024-03-23T10:16:12;10.07;;;2.60;;
58242;SDS011;50118;53.232;8.252;2024-03-23T10:18:48;8.80;;;2.40;;
58242;SDS011;50118;53.232;8.252;2024-03-23T10:21:14;7.85;;;2.13;;
58242;SDS011;50118;53.232;8.252;2024-03-23T10:23:44;7.65;;;2.10;;
58242;SDS011;50118;53.232;8.252;2024-03-23T10:31:19;8.77;;;2.00;;
58242;SDS011;50118;53.232;8.252;2024-03-23T10:33:45;8.25;;;2.42;;
58242;SDS011;50118;53.232;8.252;2024-03-23T10:36:12;7.55;;;2.20;;
58242;SDS011;50118;53.232;8.252;2024-03-23T10:38:42;7.15;;;2.10;;
58242;SDS011;50118;53.232;8.252;2024-03-23T10:41:08;8.10;;;2.60;;
58242;SDS011;50118;53.232;8.252;2024-03-23T10:43:37;8.68;;;2.75;;
58242;SDS011;50118;53.232;8.252;2024-03-23T10:46:04;7.65;;;2.90;;
58242;SDS011;50118;53.232;8.252;2024-03-23T10:48:30;8.95;;;2.92;;
58242;SDS011;50118;53.232;8.252;2024-03-23T10:50:57;8.52;;;2.40;;
58242;SDS011;50118;53.232;8.252;2024-03-23T10:53:24;7.60;;;2.85;;
58242;SDS011;50118;53.232;8.252;2024-03-23T10:55:51;10.73;;;2.80;;
58242;SDS011;50118;53.232;8.252;2024-03-23T10:58:24;8.88;;;2.67;;
58242;SDS011;50118;53.232;8.252;2024-03-23T11:00:54;6.75;;;2.50;;
58242;SDS011;50118;53.232;8.252;2024-03-23T11:03:35;8.82;;;3.00;;
58242;SDS011;50118;53.232;8.252;2024-03-23T11:08:31;7.72;;;2.60;;
58242;SDS011;50118;53.232;8.252;2024-03-23T11:11:20;7.63;;;2.55;;
58242;SDS011;50118;53.232;8.252;2024-03-23T11:13:53;9.57;;;2.80;;
58242;SDS011;50118;53.232;8.252;2024-03-23T11:16:23;9.25;;;2.80;;
58242;SDS011;50118;53.232;8.252;2024-03-23T11:18:50;7.47;;;2.72;;
58242;SDS011;50118;53.232;8.252;2024-03-23T11:24:20;10.30;;;2.42;;
58242;SDS011;50118;53.232;8.252;2024-03-23T11:26:47;7.63;;;2.10;;
58242;SDS011;50118;53.232;8.252;2024-03-23T11:29:16;10.10;;;2.50;;
58242;SDS011;50118;53.232;8.252;2024-03-23T11:31:47;8.13;;;2.20;;
58242;SDS011;50118;53.232;8.252;2024-03-23T11:34:13;6.97;;;1.77;;
58242;SDS011;50118;53.232;8.252;2024-03-23T11:36:40;2.47;;;1.20;;
58242;SDS011;50118;53.232;8.252;2024-03-23T11:39:13;5.80;;;1.63;;
58242;SDS011;50118;53.232;8.252;2024-03-23T11:41:50;5.25;;;1.23;;
58242;SDS011;50118;53.232;8.252;2024-03-23T11:44:20;4.13;;;1.40;;
58242;SDS011;50118;53.232;8.252;2024-03-23T11:46:50;2.47;;;1.23;;
58242;SDS011;50118;53.232;8.252;2024-03-23T11:49:23;3.08;;;1.58;;
58242;SDS011;50118;53.232;8.252;2024-03-23T11:51:50;3.22;;;1.30;;
58242;SDS011;50118;53.232;8.252;2024-03-23T11:54:22;2.25;;;1.10;;
58242;SDS011;50118;53.232;8.252;2024-03-23T11:57:02;2.85;;;1.20;;
58242;SDS011;50118;53.232;8.252;2024-03-23T11:59:41;5.28;;;2.42;;
58242;SDS011;50118;53.232;8.252;2024-03-23T12:02:07;2.47;;;1.00;;
58242;SDS011;50118;53.232;8.252;2024-03-23T12:04:39;3.80;;;1.30;;
58242;SDS011;50118;53.232;8.252;2024-03-23T12:07:09;2.78;;;1.20;;
58242;SDS011;50118;53.232;8.252;2024-03-23T12:09:43;2.55;;;1.40;;
58242;SDS011;50118;53.232;8.252;2024-03-23T12:12:14;4.20;;;1.60;;
58242;SDS011;50118;53.232;8.252;2024-03-23T12:14:44;5.68;;;1.58;;
58242;SDS011;50118;53.232;8.252;2024-03-23T12:17:14;4.38;;;1.58;;
58242;SDS011;50118;53.232;8.252;2024-03-23T12:19:40;3.72;;;1.50;;
58242;SDS011;50118;53.232;8.252;2024-03-23T12:22:07;4.95;;;1.55;;
58242;SDS011;50118;53.232;8.252;2024-03-23T12:24:34;4.95;;;2.08;;
58242;SDS011;50118;53.232;8.252;2024-03-23T12:27:03;7.30;;;2.55;;
58242;SDS011;50118;53.232;8.252;2024-03-23T12:29:32;6.82;;;1.92;;
58242;SDS011;50118;53.232;8.252;2024-03-23T12:31:59;8.07;;;2.42;;
58242;SDS011;50118;53.232;8.252;2024-03-23T12:34:28;6.22;;;1.88;;
58242;SDS011;50118;53.232;8.252;2024-03-23T12:36:54;6.18;;;2.10;;
58242;SDS011;50118;53.232;8.252;2024-03-23T12:39:19;5.43;;;1.90;;
58242;SDS011;50118;53.232;8.252;2024-03-23T12:41:46;6.47;;;2.00;;
58242;SDS011;50118;53.232;8.252;2024-03-23T12:44:12;5.45;;;2.15;;
58242;SDS011;50118;53.232;8.252;2024-03-23T12:46:38;7.03;;;2.58;;
58242;SDS011;50118;53.232;8.252;2024-03-23T12:49:04;8.65;;;2.17;;
58242;SDS011;50118;53.232;8.252;2024-03-23T12:51:30;5.85;;;2.42;;
58242;SDS011;50118;53.232;8.252;2024-03-23T12:53:56;5.57;;;2.10;;
58242;SDS011;50118;53.232;8.252;2024-03-23T12:56:21;6.85;;;2.20;;
58242;SDS011;50118;53.232;8.252;2024-03-23T12:58:47;6.47;;;1.90;;
58242;SDS011;50118;53.232;8.252;2024-03-23T13:01:20;4.70;;;1.60;;
58242;SDS011;50118;53.232;8.252;2024-03-23T13:03:49;6.43;;;2.15;;
58242;SDS011;50118;53.232;8.252;2024-03-23T13:06:16;3.75;;;1.90;;
58242;SDS011;50118;53.232;8.252;2024-03-23T13:08:47;4.55;;;1.70;;
58242;SDS011;50118;53.232;8.252;2024-03-23T13:11:15;4.55;;;1.98;;
58242;SDS011;50118;53.232;8.252;2024-03-23T13:13:40;6.75;;;2.00;;
58242;SDS011;50118;53.232;8.252;2024-03-23T13:16:07;7.10;;;1.88;;
58242;SDS011;50118;53.232;8.252;2024-03-23T13:18:33;6.32;;;1.90;;
58242;SDS011;50118;53.232;8.252;2024-03-23T13:20:58;6.15;;;1.80;;
58242;SDS011;50118;53.232;8.252;2024-03-23T13:23:24;6.70;;;2.00;;
58242;SDS011;50118;53.232;8.252;2024-03-23T13:25:53;5.60;;;1.90;;
58242;SDS011;50118;53.232;8.252;2024-03-23T13:28:20;7.18;;;2.03;;
58242;SDS011;50118;53.232;8.252;2024-03-23T13:30:52;5.28;;;1.85;;
58242;SDS011;50118;53.232;8.252;2024-03-23T13:33:18;8.43;;;2.10;;
58242;SDS011;50118;53.232;8.252;2024-03-23T13:35:53;5.43;;;1.92;;
58242;SDS011;50118;53.232;8.252;2024-03-23T13:38:20;7.75;;;2.00;;
58242;SDS011;50118;53.232;8.252;2024-03-23T13:40:50;5.60;;;1.73;;
58242;SDS011;50118;53.232;8.252;2024-03-23T13:43:15;5.40;;;1.98;;
58242;SDS011;50118;53.232;8.252;2024-03-23T13:45:41;6.07;;;1.98;;
58242;SDS011;50118;53.232;8.252;2024-03-23T13:48:06;6.63;;;1.88;;
58242;SDS011;50118;53.232;8.252;2024-03-23T13:50:32;4.95;;;1.90;;
58242;SDS011;50118;53.232;8.252;2024-03-23T13:52:58;7.72;;;1.80;;
58242;SDS011;50118;53.232;8.252;2024-03-23T13:55:23;6.50;;;2.00;;
58242;SDS011;50118;53.232;8.252;2024-03-23T13:57:48;6.20;;;2.00;;
58242;SDS011;50118;53.232;8.252;2024-03-23T14:00:15;7.50;;;1.90;;
58242;SDS011;50118;53.232;8.252;2024-03-23T14:02:43;5.85;;;1.80;;
58242;SDS011;50118;53.232;8.252;2024-03-23T14:05:08;5.43;;;2.00;;
58242;SDS011;50118;53.232;8.252;2024-03-23T14:07:34;6.38;;;2.17;;
58242;SDS011;50118;53.232;8.252;2024-03-23T14:10:03;9.40;;;2.00;;
58242;SDS011;50118;53.232;8.252;2024-03-23T14:12:31;7.72;;;1.80;;
58242;SDS011;50118;53.232;8.252;2024-03-23T14:14:57;8.73;;;2.10;;
58242;SDS011;50118;53.232;8.252;2024-03-23T14:17:22;6.38;;;2.17;;
58242;SDS011;50118;53.232;8.252;2024-03-23T14:19:48;7.35;;;2.17;;
58242;SDS011;50118;53.232;8.252;2024-03-23T14:22:15;7.45;;;1.50;;
58242;SDS011;50118;53.232;8.252;2024-03-23T14:24:42;3.70;;;1.33;;
58242;SDS011;50118;53.232;8.252;2024-03-23T14:27:08;2.63;;;1.00;;
58242;SDS011;50118;53.232;8.252;2024-03-23T14:29:33;3.55;;;1.20;;
58242;SDS011;50118;53.232;8.252;2024-03-23T14:31:59;4.05;;;1.02;;
58242;SDS011;50118;53.232;8.252;2024-03-23T14:34:26;5.82;;;1.45;;
58242;SDS011;50118;53.232;8.252;2024-03-23T14:36:53;7.20;;;2.90;;
58242;SDS011;50118;53.232;8.252;2024-03-23T14:39:22;4.22;;;1.30;;
58242;SDS011;50118;53.232;8.252;2024-03-23T14:41:50;3.65;;;1.23;;
58242;SDS011;50118;53.232;8.252;2024-03-23T14:44:15;5.30;;;1.40;;
58242;SDS011;50118;53.232;8.252;2024-03-23T14:46:41;3.78;;;1.40;;
58242;SDS011;50118;53.232;8.252;2024-03-23T14:49:06;5.57;;;1.60;;
58242;SDS011;50118;53.232;8.252;2024-03-23T14:51:32;6.72;;;1.50;;
58242;SDS011;50118;53.232;8.252;2024-03-23T14:53:58;7.22;;;2.05;;
58242;SDS011;50118;53.232;8.252;2024-03-23T14:56:24;4.38;;;1.70;;
58242;SDS011;50118;53.232;8.252;2024-03-23T14:58:52;6.22;;;1.65;;
58242;SDS011;50118;53.232;8.252;2024-03-23T15:01:18;6.57;;;1.83;;
58242;SDS011;50118;53.232;8.252;2024-03-23T15:03:44;5.38;;;1.48;;
58242;SDS011;50118;53.232;8.252;2024-03-23T15:06:09;5.40;;;1.80;;
58242;SDS011;50118;53.232;8.252;2024-03-23T15:08:35;5.13;;;1.75;;
58242;SDS011;50118;53.232;8.252;2024-03-23T15:11:05;6.13;;;2.00;;
58242;SDS011;50118;53.232;8.252;2024-03-23T15:13:34;7.05;;;1.75;;
58242;SDS011;50118;53.232;8.252;2024-03-23T15:16:01;7.50;;;1.77;;
58242;SDS011;50118;53.232;8.252;2024-03-23T15:18:28;4.55;;;1.60;;
58242;SDS011;50118;53.232;8.252;2024-03-23T15:20:55;8.27;;;1.80;;
58242;SDS011;50118;53.232;8.252;2024-03-23T15:23:21;7.47;;;1.73;;
58242;SDS011;50118;53.232;8.252;2024-03-23T15:25:54;5.72;;;1.90;;
58242;SDS011;50118;53.232;8.252;2024-03-23T15:28:29;4.50;;;1.73;;
58242;SDS011;50118;53.232;8.252;2024-03-23T15:31:19;10.02;;;2.63;;
58242;SDS011;50118;53.232;8.252;2024-03-23T15:33:45;10.35;;;3.38;;
58242;SDS011;50118;53.232;8.252;2024-03-23T15:36:10;9.38;;;2.40;;
58242;SDS011;50118;53.232;8.252;2024-03-23T15:38:36;8.63;;;2.50;;
58242;SDS011;50118;53.232;8.252;2024-03-23T15:41:03;7.68;;;1.92;;
58242;SDS011;50118;53.232;8.252;2024-03-23T15:43:29;8.35;;;2.28;;
58242;SDS011;50118;53.232;8.252;2024-03-23T15:48:21;11.02;;;2.40;;